createdAt,value
2019-04-23T00:00:56.326Z,100274.37
2019-04-23T00:03:18.846Z,100278.61
2019-04-23T00:06:00.077Z,100279.16
2019-04-23T00:08:26.057Z,100281.73
2019-04-23T00:10:58.884Z,100290.69
2019-04-23T00:13:29.813Z,100296.44
2019-04-23T00:16:03.052Z,100297.28
2019-04-23T00:18:37.366Z,100297.26
2019-04-23T00:21:11.713Z,100293.34
2019-04-23T00:23:38.481Z,100300.11
2019-04-23T00:26:19.869Z,100296.20
2019-04-23T00:31:13.411Z,100302.08
2019-04-23T00:33:36.130Z,100297.41
2019-04-23T00:36:10.365Z,100292.68
2019-04-23T00:38:38.667Z,100298.78
2019-04-23T00:41:09.389Z,100299.01
2019-04-23T00:43:43.369Z,100290.11
2019-04-23T00:46:06.564Z,100306.06
2019-04-23T00:48:42.768Z,100306.61
2019-04-23T00:51:07.823Z,100308.72
2019-04-23T00:53:37.045Z,100313.37
2019-04-23T00:56:25.264Z,100308.20
2019-04-23T00:58:44.089Z,100310.05
2019-04-23T01:01:11.315Z,100318.39
2019-04-23T01:03:45.384Z,100312.38
2019-04-23T01:06:12.943Z,100312.91
2019-04-23T01:08:49.703Z,100301.69
2019-04-23T01:11:20.437Z,100303.02
2019-04-23T01:16:15.266Z,100304.58
2019-04-23T01:18:51.510Z,100303.53
2019-04-23T01:21:03.322Z,100315.77
2019-04-23T01:23:44.549Z,100323.08
2019-04-23T01:26:31.563Z,100328.27
2019-04-23T01:29:09.194Z,100322.00
2019-04-23T01:31:39.471Z,100320.72
2019-04-23T01:34:07.954Z,100323.05
2019-04-23T01:36:32.545Z,100323.33
2019-04-23T01:41:44.498Z,100327.75
2019-04-23T01:44:05.267Z,100325.92
2019-04-23T01:46:43.136Z,100336.12
2019-04-23T01:49:30.915Z,100341.32
2019-04-23T01:54:09.529Z,100345.48
2019-04-23T01:56:38.597Z,100352.25
2019-04-23T01:59:16.664Z,100354.35
2019-04-23T02:01:46.280Z,100351.20
2019-04-23T02:04:20.167Z,100352.01
2019-04-23T02:06:45.517Z,100343.94
2019-04-23T02:09:13.794Z,100354.34
2019-04-23T02:11:45.498Z,100355.14
2019-04-23T02:14:16.377Z,100359.84
2019-04-23T02:16:47.824Z,100363.77
2019-04-23T02:19:17.053Z,100361.67
2019-04-23T02:22:06.742Z,100366.61
2019-04-23T02:24:45.045Z,100373.13
2019-04-23T02:27:05.459Z,100379.39
2019-04-23T02:29:55.991Z,100380.42
2019-04-23T02:32:09.386Z,100381.98
2019-04-23T02:34:52.412Z,100393.71
2019-04-23T02:37:24.367Z,100395.53
2019-04-23T02:40:08.637Z,100397.35
2019-04-23T02:44:45.503Z,100407.25
2019-04-23T02:49:54.829Z,100403.59
2019-04-23T02:57:18.641Z,100394.98
2019-04-23T03:00:08.067Z,100394.99
2019-04-23T03:04:57.733Z,100407.02
2019-04-23T03:09:56.592Z,100402.03
2019-04-23T03:12:37.806Z,100394.48
2019-04-23T03:15:00.679Z,100402.30
2019-04-23T03:17:26.395Z,100390.84
2019-04-23T03:25:46.022Z,100386.17
2019-04-23T03:28:21.245Z,100384.87
2019-04-23T03:32:31.903Z,100395.53
2019-04-23T03:38:37.527Z,100410.17
2019-04-23T03:41:10.710Z,100413.53
2019-04-23T03:43:33.275Z,100427.36
2019-04-23T03:48:45.353Z,100431.53
2019-04-23T03:50:52.823Z,100433.89
2019-04-23T03:56:12.454Z,100442.45
2019-04-23T04:01:11.970Z,100438.59
2019-04-23T04:04:03.785Z,100452.13
2019-04-23T04:06:20.897Z,100453.17
2019-04-23T04:08:36.023Z,100452.95
2019-04-23T04:11:11.399Z,100457.11
2019-04-23T04:19:01.700Z,100482.17
2019-04-23T04:21:16.158Z,100472.27
2019-04-23T04:23:43.061Z,100472.03
2019-04-23T04:26:17.271Z,100469.91
2019-04-23T04:31:30.973Z,100476.18
2019-04-23T04:36:20.985Z,100462.36
2019-04-23T04:38:56.698Z,100474.09
2019-04-23T04:41:24.009Z,100478.55
2019-04-23T04:46:21.178Z,100479.62
2019-04-23T04:48:49.285Z,100479.11
2019-04-23T04:56:18.909Z,100476.73
2019-04-23T04:59:05.298Z,100486.91
2019-04-23T05:03:32.770Z,100499.41
2019-04-23T05:06:44.596Z,100495.26
2019-04-23T05:08:56.070Z,100497.86
2019-04-23T05:11:28.925Z,100497.80
2019-04-23T05:13:49.832Z,100502.50
2019-04-23T05:16:27.701Z,100503.52
2019-04-23T05:21:38.898Z,100508.60
2019-04-23T05:24:14.853Z,100512.76
2019-04-23T05:31:28.055Z,100504.97
2019-04-23T05:34:02.586Z,100499.50
2019-04-23T05:36:49.892Z,100499.22
2019-04-23T05:39:12.247Z,100503.90
2019-04-23T05:49:06.202Z,100505.44
2019-04-23T05:51:44.561Z,100508.72
2019-04-23T05:54:06.494Z,100509.12
2019-04-23T05:56:38.219Z,100518.72
2019-04-23T05:59:14.705Z,100529.34
2019-04-23T06:04:17.701Z,100537.94
2019-04-23T06:11:56.958Z,100544.42
2019-04-23T06:14:17.396Z,100545.97
2019-04-23T06:16:41.862Z,100546.98
2019-04-23T06:19:14.363Z,100553.53
2019-04-23T06:21:52.900Z,100550.55
2019-04-23T06:29:20.986Z,100567.98
2019-04-23T06:31:48.835Z,100570.58
2019-04-23T06:34:20.353Z,100568.53
2019-04-23T06:36:44.460Z,100570.22
2019-04-23T06:39:24.362Z,100574.37
2019-04-23T06:41:49.883Z,100577.13
2019-04-23T06:49:27.944Z,100566.90
2019-04-23T06:52:02.349Z,100571.27
2019-04-23T06:54:27.875Z,100579.48
2019-04-23T06:56:58.689Z,100579.42
2019-04-23T06:59:27.347Z,100579.30
2019-04-23T07:01:59.400Z,100585.89
2019-04-23T07:04:25.889Z,100585.47
2019-04-23T07:07:15.121Z,100585.88
2019-04-23T07:09:40.113Z,100591.45
2019-04-23T07:12:08.670Z,100589.56
2019-04-23T07:14:30.785Z,100591.87
2019-04-23T07:16:58.913Z,100586.95
2019-04-23T07:19:44.967Z,100595.50
2019-04-23T07:22:08.131Z,100600.51
2019-04-23T07:24:32.857Z,100608.27
2019-04-23T07:26:54.873Z,100609.47
2019-04-23T07:29:54.315Z,100611.73
2019-04-23T07:32:11.835Z,100610.16
2019-04-23T07:34:28.229Z,100611.13
2019-04-23T07:37:00.286Z,100592.75
2019-04-23T07:39:45.703Z,100594.84
2019-04-23T07:42:16.856Z,100597.71
2019-04-23T07:44:42.394Z,100599.80
2019-04-23T07:50:04.980Z,100604.89
2019-04-23T07:52:23.950Z,100605.22
2019-04-23T07:54:54.371Z,100601.38
2019-04-23T07:57:18.719Z,100606.05
2019-04-23T07:59:56.253Z,100599.67
2019-04-23T08:02:28.954Z,100606.16
2019-04-23T08:05:03.562Z,100610.64
2019-04-23T08:07:23.119Z,100613.59
2019-04-23T08:09:53.253Z,100601.98
2019-04-23T08:12:25.555Z,100611.72
2019-04-23T08:14:59.949Z,100607.42
2019-04-23T08:17:22.516Z,100608.97
2019-04-23T08:22:28.599Z,100609.39
2019-04-23T08:25:12.873Z,100606.16
2019-04-23T08:30:00.177Z,100607.13
2019-04-23T08:32:45.160Z,100616.23
2019-04-23T08:37:46.769Z,100620.79
2019-04-23T08:40:04.376Z,100619.56
2019-04-23T08:48:16.629Z,100632.22
2019-04-23T08:50:40.650Z,100630.50
2019-04-23T08:53:26.351Z,100624.27
2019-04-23T08:55:44.540Z,100628.45
2019-04-23T08:58:13.393Z,100627.35
2019-04-23T09:00:51.917Z,100630.44
2019-04-23T09:03:19.987Z,100624.52
2019-04-23T09:06:00.750Z,100612.80
2019-04-23T09:10:49.615Z,100612.70
2019-04-23T09:13:39.981Z,100614.16
2019-04-23T09:15:49.923Z,100612.56
2019-04-23T09:18:23.021Z,100597.70
2019-04-23T09:20:48.132Z,100582.80
2019-04-23T09:23:29.496Z,100586.67
2019-04-23T09:25:54.172Z,100582.56
2019-04-23T09:28:34.603Z,100570.80
2019-04-23T09:31:06.145Z,100568.28
2019-04-23T09:36:22.471Z,100554.39
2019-04-23T09:38:59.866Z,100553.50
2019-04-23T09:41:28.065Z,100550.70
2019-04-23T09:46:44.057Z,100560.09
2019-04-23T09:49:17.725Z,100562.50
2019-04-23T09:51:46.981Z,100554.02
2019-04-23T09:56:50.945Z,100565.09
2019-04-23T09:59:33.864Z,100566.41
2019-04-23T10:01:49.771Z,100564.56
2019-04-23T10:04:00.312Z,100568.30
2019-04-23T10:06:24.967Z,100562.78
2019-04-23T10:08:54.445Z,100570.33
2019-04-23T10:11:22.259Z,100570.84
2019-04-23T10:13:52.762Z,100567.94
2019-04-23T10:16:25.596Z,100556.77
2019-04-23T10:18:53.303Z,100556.13
2019-04-23T10:21:23.604Z,100550.61
2019-04-23T10:23:52.808Z,100543.62
2019-04-23T10:26:21.937Z,100535.66
2019-04-23T10:28:59.987Z,100529.10
2019-04-23T10:31:28.976Z,100521.83
2019-04-23T10:33:58.066Z,100519.75
2019-04-23T10:36:32.152Z,100525.66
2019-04-23T10:39:07.353Z,100532.58
2019-04-23T10:41:32.730Z,100537.93
2019-04-23T10:44:04.950Z,100525.22
2019-04-23T10:46:58.283Z,100524.71
2019-04-23T10:52:20.199Z,100506.53
2019-04-23T10:57:11.264Z,100501.33
2019-04-23T11:04:54.343Z,100485.84
2019-04-23T11:07:30.792Z,100482.17
2019-04-23T11:15:08.616Z,100504.64
2019-04-23T11:17:45.517Z,100508.86
2019-04-23T11:20:07.462Z,100515.47
2019-04-23T11:22:43.869Z,100509.48
2019-04-23T11:27:32.955Z,100504.50
2019-04-23T11:30:10.781Z,100505.09
2019-04-23T11:32:46.725Z,100514.77
2019-04-23T11:35:17.563Z,100513.14
2019-04-23T11:40:08.609Z,100508.30
2019-04-23T11:42:42.590Z,100506.26
2019-04-23T11:45:17.138Z,100491.09
2019-04-23T11:50:32.729Z,100476.58
2019-04-23T11:55:28.670Z,100468.19
2019-04-23T11:57:52.572Z,100471.43
2019-04-23T12:00:21.196Z,100459.06
2019-04-23T12:03:02.532Z,100475.22
2019-04-23T12:05:41.526Z,100471.78
2019-04-23T12:08:13.433Z,100460.98
2019-04-23T12:10:43.033Z,100463.34
2019-04-23T12:13:21.460Z,100477.48
2019-04-23T12:15:47.896Z,100461.86
2019-04-23T12:18:23.095Z,100468.77
2019-04-23T12:20:46.288Z,100466.33
2019-04-23T12:25:58.650Z,100458.38
2019-04-23T12:28:20.597Z,100448.97
2019-04-23T12:30:50.761Z,100451.98
2019-04-23T12:33:28.114Z,100439.59
2019-04-23T12:35:51.959Z,100435.76
2019-04-23T12:38:25.483Z,100434.80
2019-04-23T12:40:56.307Z,100424.97
2019-04-23T12:45:50.456Z,100427.45
2019-04-23T12:48:41.321Z,100425.62
2019-04-23T12:51:17.477Z,100414.41
2019-04-23T12:53:32.222Z,100422.53
2019-04-23T12:56:21.914Z,100410.31
2019-04-23T12:58:26.977Z,100412.95
2019-04-23T13:01:05.590Z,100419.88
2019-04-23T13:03:30.209Z,100419.61
2019-04-23T13:05:53.050Z,100423.52
2019-04-23T13:11:23.718Z,100415.11
2019-04-23T13:13:37.596Z,100412.02
2019-04-23T13:16:25.343Z,100405.64
2019-04-23T13:18:41.435Z,100399.92
2019-04-23T13:21:13.566Z,100398.14
2019-04-23T13:23:35.975Z,100394.27
2019-04-23T13:26:04.495Z,100389.00
2019-04-23T13:29:03.110Z,100396.92
2019-04-23T13:33:45.481Z,100384.32
2019-04-23T13:46:17.997Z,100380.64
2019-04-23T13:48:47.030Z,100371.83
2019-04-23T13:51:26.012Z,100369.41
2019-04-23T13:56:24.776Z,100379.32
2019-04-23T13:58:56.443Z,100390.61
2019-04-23T14:01:30.916Z,100382.36
2019-04-23T14:04:16.615Z,100382.02
2019-04-23T14:08:59.853Z,100373.85
2019-04-23T14:13:59.774Z,100391.92
2019-04-23T14:24:08.346Z,100371.31
2019-04-23T14:29:01.190Z,100381.74
2019-04-23T14:31:28.000Z,100382.31
2019-04-23T14:39:06.175Z,100391.62
2019-04-23T14:41:36.257Z,100395.04
2019-04-23T14:44:10.468Z,100390.83
2019-04-23T14:54:12.857Z,100369.05
2019-04-23T14:56:50.174Z,100365.23
2019-04-23T15:01:42.891Z,100347.52
2019-04-23T15:04:10.953Z,100339.92
2019-04-23T15:06:50.794Z,100318.11
2019-04-23T15:09:22.866Z,100277.84
2019-04-23T15:11:52.777Z,100250.52
2019-04-23T15:14:17.640Z,100243.86
2019-04-23T15:16:54.466Z,100238.34
2019-04-23T15:19:44.582Z,100244.46
2019-04-23T15:22:04.719Z,100274.84
2019-04-23T15:24:27.743Z,100308.61
2019-04-23T15:29:13.036Z,100339.65
2019-04-23T15:34:23.517Z,100341.20
2019-04-23T15:37:14.050Z,100341.23
2019-04-23T15:42:08.851Z,100331.15
2019-04-23T15:44:27.771Z,100326.23
2019-04-23T15:47:01.944Z,100319.63
2019-04-23T15:49:35.637Z,100326.41
2019-04-23T15:52:06.708Z,100327.67
2019-04-23T15:54:36.562Z,100327.11
2019-04-23T15:57:07.292Z,100328.60
2019-04-23T16:01:42.661Z,100307.09
2019-04-23T16:04:07.258Z,100314.03
2019-04-23T16:06:38.517Z,100320.59
2019-04-23T16:09:26.161Z,100311.41
2019-04-23T16:12:01.510Z,100307.02
2019-04-23T16:14:42.484Z,100300.41
2019-04-23T16:19:59.651Z,100298.31
2019-04-23T16:22:18.985Z,100309.68
2019-04-23T16:24:59.845Z,100319.86
2019-04-23T16:27:16.916Z,100329.13
2019-04-23T16:30:00.249Z,100328.73
2019-04-23T16:32:31.423Z,100325.13
2019-04-23T16:35:08.867Z,100334.05
2019-04-23T16:37:26.582Z,100356.25
2019-04-23T16:40:03.481Z,100355.64
2019-04-23T16:42:29.893Z,100353.09
2019-04-23T16:45:12.398Z,100369.77
2019-04-23T18:18:33.433Z,100404.34
2019-04-23T18:21:23.258Z,100403.91
2019-04-23T18:24:13.444Z,100401.14
2019-04-23T18:26:51.534Z,100401.75
2019-04-23T18:29:45.598Z,100387.25
2019-04-23T18:32:16.288Z,100385.34
2019-04-23T18:35:02.415Z,100366.69
2019-04-23T18:37:17.935Z,100362.05
2019-04-23T18:39:48.540Z,100373.77
2019-04-23T18:47:29.397Z,100375.19
2019-04-23T18:49:48.062Z,100373.97
2019-04-23T18:52:25.990Z,100376.88
2019-04-23T18:54:48.850Z,100374.55
2019-04-23T19:02:39.407Z,100392.29
2019-04-23T19:05:08.616Z,100388.80
2019-04-23T19:07:42.390Z,100390.95
2019-04-23T19:10:28.516Z,100383.37
2019-04-23T19:15:36.517Z,100396.86
2019-04-23T19:17:56.372Z,100397.36
2019-04-23T19:23:09.505Z,100399.89
2019-04-23T19:25:31.094Z,100382.88
2019-04-23T19:28:23.974Z,100380.79
2019-04-23T19:30:46.827Z,100368.06
2019-04-23T19:40:53.508Z,100351.17
2019-04-23T19:43:19.420Z,100341.50
2019-04-23T19:45:55.753Z,100332.53
2019-04-23T19:53:26.172Z,100328.52
2019-04-23T19:56:04.184Z,100319.63
2019-04-23T19:58:30.005Z,100323.70
2019-04-23T20:05:59.506Z,100327.20
2019-04-23T20:08:34.330Z,100321.95
2019-04-23T20:10:57.436Z,100329.13
2019-04-23T20:13:31.608Z,100325.23
2019-04-23T20:16:05.332Z,100326.80
2019-04-23T20:18:40.220Z,100314.13
2019-04-23T20:20:59.260Z,100324.90
2019-04-23T20:23:43.319Z,100332.61
2019-04-23T20:32:31.312Z,100326.09
2019-04-23T20:34:25.862Z,100340.96
2019-04-23T20:36:33.767Z,100335.63
2019-04-23T20:39:16.450Z,100332.08
2019-04-23T20:41:58.003Z,100339.45
2019-04-23T20:44:30.284Z,100345.39
2019-04-23T20:46:58.275Z,100350.66
2019-04-23T20:49:21.413Z,100355.34
2019-04-23T20:51:54.937Z,100368.09
2019-04-23T20:54:22.379Z,100377.30
2019-04-23T20:57:10.755Z,100377.38
2019-04-23T20:59:44.190Z,100367.80
2019-04-23T21:02:15.130Z,100366.08
2019-04-23T21:04:53.180Z,100368.95
2019-04-23T21:07:15.984Z,100369.14
2019-04-23T21:09:51.467Z,100375.69
2019-04-23T21:12:22.890Z,100386.88
2019-04-23T21:14:59.705Z,100395.05
2019-04-23T21:17:14.648Z,100394.55
2019-04-23T21:20:01.420Z,100403.88
2019-04-23T21:24:46.455Z,100423.31
2019-04-23T21:27:29.846Z,100440.11
2019-04-23T21:29:58.787Z,100449.58
2019-04-23T21:32:35.372Z,100448.32
2019-04-23T21:35:04.912Z,100435.25
2019-04-23T21:37:35.644Z,100423.06
2019-04-23T21:42:41.088Z,100417.02
2019-04-23T21:44:59.028Z,100417.81
2019-04-23T21:50:14.114Z,100389.42
2019-04-23T21:52:33.842Z,100414.70
2019-04-23T21:55:03.635Z,100396.16
2019-04-23T21:57:46.324Z,100408.83
2019-04-23T22:02:52.085Z,100392.23
2019-04-23T22:05:12.127Z,100377.78
2019-04-23T22:08:01.717Z,100366.36
2019-04-23T22:10:15.361Z,100371.69
2019-04-23T22:12:46.816Z,100379.98
2019-04-23T22:15:04.738Z,100391.17
2019-04-23T22:17:44.634Z,100389.66
2019-04-23T22:20:19.590Z,100392.93
2019-04-23T22:22:56.339Z,100397.14
2019-04-23T22:25:03.996Z,100374.17
2019-04-23T22:27:49.698Z,100382.08
2019-04-23T22:30:16.386Z,100388.08
2019-04-23T22:33:00.976Z,100386.59
2019-04-23T22:35:10.655Z,100383.77
2019-04-23T22:37:54.645Z,100375.75
2019-04-23T22:40:11.479Z,100365.34
2019-04-23T22:43:08.986Z,100365.38
2019-04-23T22:45:16.212Z,100376.62
2019-04-23T22:47:55.666Z,100390.88
2019-04-23T22:50:18.927Z,100399.39
2019-04-23T22:52:53.988Z,100419.06
2019-04-23T22:55:12.681Z,100417.03
2019-04-23T23:03:21.201Z,100414.46
2019-04-23T23:06:12.788Z,100408.23
2019-04-23T23:10:50.772Z,100399.55
2019-04-23T23:13:21.825Z,100406.44
2019-04-23T23:15:53.326Z,100411.47
2019-04-23T23:23:24.253Z,100410.39
2019-04-23T23:25:59.182Z,100406.83
2019-04-23T23:28:26.920Z,100405.61
2019-04-23T23:31:02.032Z,100408.27
2019-04-23T23:33:24.513Z,100397.30
2019-04-23T23:35:58.913Z,100395.73
2019-04-23T23:38:33.254Z,100393.13
2019-04-23T23:41:03.707Z,100391.86
2019-04-23T23:46:17.269Z,100383.03
2019-04-23T23:48:28.041Z,100376.75
2019-04-23T23:51:17.031Z,100374.94
2019-04-23T23:53:40.200Z,100365.57
2019-04-23T23:56:10.911Z,100362.69
2019-04-23T23:58:48.232Z,100365.30
